Time;durP1;ratioP1;P1;durP2;ratioP2;P2;SDS_P1;SDS_P2;PMS_P1;PMS_P2;Temp;Humidity;BMP_temperature;BMP_pressure;BME280_temperature;BME280_humidity;BME280_pressure;Samples;Min_cycle;Max_cycle;Signal;HPM_P1;HPM_P2
2024/01/07 00:00:47;;;;;;;;;;;;;;;9.42;78.16;97719.97;4435583;32;34271;-89
2024/01/07 00:03:14;;;;;;;;;;;;;;;8.99;79.78;97713.31;4435619;32;34774;-88
2024/01/07 00:05:42;;;;;;;;;;;;;;;9.18;79.65;97721.84;4435353;32;33241;-83
2024/01/07 00:08:09;;;;;;;;;;;;;;;9.15;79.61;97721.84;4434148;32;34275;-87
2024/01/07 00:10:36;;;;;;;;;;;;;;;9.22;78.73;97713.19;4435862;32;34424;-84
2024/01/07 00:13:03;;;;;;;;;;;;;;;9.39;78.11;97715.66;4436898;32;34970;-84
2024/01/07 00:15:31;;;;;;;;;;;;;;;9.37;78.54;97707.09;4435781;32;33130;-88
2024/01/07 00:17:58;;;;;;;;;;;;;;;9.24;78.40;97710.59;4429719;32;33746;-88
2024/01/07 00:20:26;;;;;;;;;;;;;;;9.10;79.29;97710.69;4427318;32;34917;-82
2024/01/07 00:22:53;;;;;;;;;;;;;;;9.35;78.18;97713.13;4434849;32;32807;-84
2024/01/07 00:25:21;;;;;;;;;;;;;;;9.25;78.19;97712.34;4436653;32;32565;-83
2024/01/07 00:27:50;;;;;;;;;;;;;;;8.98;79.81;97708.16;4437031;32;33896;-85
2024/01/07 00:30:18;;;;;;;;;;;;;;;9.35;78.37;97703.62;4435698;32;34117;-82
2024/01/07 00:32:45;;;;;;;;;;;;;;;9.05;79.39;97712.41;4435630;32;34622;-82
2024/01/07 00:35:12;;;;;;;;;;;;;;;8.98;79.28;97700.41;4435210;32;34077;-84
2024/01/07 00:37:39;;;;;;;;;;;;;;;8.97;79.22;97703.81;4435029;32;34714;-83
2024/01/07 00:40:07;;;;;;;;;;;;;;;8.84;79.73;97702.19;4434952;32;34386;-82
2024/01/07 00:42:35;;;;;;;;;;;;;;;9.02;79.26;97700.38;4435053;32;34702;-88
2024/01/07 00:45:02;;;;;;;;;;;;;;;8.94;79.55;97702.13;4435042;32;33838;-89
2024/01/07 00:47:30;;;;;;;;;;;;;;;8.86;79.88;97697.84;4429125;32;34908;-85
2024/01/07 00:49:57;;;;;;;;;;;;;;;8.84;79.58;97700.44;4427990;32;34734;-88
2024/01/07 00:52:25;;;;;;;;;;;;;;;9.09;79.05;97700.31;4426944;32;34037;-86
2024/01/07 00:54:52;;;;;;;;;;;;;;;8.72;80.33;97709.09;4420628;32;33576;-86
2024/01/07 00:57:19;;;;;;;;;;;;;;;9.08;78.54;97706.37;4425151;32;33809;-89
2024/01/07 00:59:47;;;;;;;;;;;;;;;9.01;79.22;97708.97;4419112;32;33652;-83
2024/01/07 01:02:14;;;;;;;;;;;;;;;9.10;78.34;97713.25;4419817;32;32634;-88
2024/01/07 01:04:42;;;;;;;;;;;;;;;9.04;78.85;97713.28;4419723;32;33320;-85
2024/01/07 01:07:09;;;;;;;;;;;;;;;9.27;77.85;97716.59;4420383;32;33783;-87
2024/01/07 01:09:37;;;;;;;;;;;;;;;9.04;78.77;97718.44;4419529;32;32879;-87
2024/01/07 01:12:04;;;;;;;;;;;;;;;8.92;79.13;97714.19;4420244;32;32778;-85
2024/01/07 01:14:31;;;;;;;;;;;;;;;9.20;77.98;97714.06;4419370;32;33319;-85
2024/01/07 01:16:59;;;;;;;;;;;;;;;8.91;79.01;97711.62;4419768;32;34068;-85
2024/01/07 01:19:26;;;;;;;;;;;;;;;8.75;79.46;97714.28;4419884;32;32813;-84
2024/01/07 01:21:53;;;;;;;;;;;;;;;8.93;78.76;97715.91;4420672;32;34138;-86
2024/01/07 01:24:21;;;;;;;;;;;;;;;9.05;78.49;97714.13;4421830;32;33426;-85
2024/01/07 01:26:48;;;;;;;;;;;;;;;9.05;78.37;97708.97;4421010;32;33822;-87
2024/01/07 01:29:15;;;;;;;;;;;;;;;8.81;79.03;97704.75;4418979;32;34324;-87
2024/01/07 01:31:43;;;;;;;;;;;;;;;8.64;80.31;97710.84;4419677;32;32469;-87
2024/01/07 01:34:10;;;;;;;;;;;;;;;8.75;79.72;97708.22;4420343;32;33076;-84
2024/01/07 01:36:38;;;;;;;;;;;;;;;8.23;80.99;97705.75;4419767;32;34133;-89
2024/01/07 01:39:06;;;;;;;;;;;;;;;8.58;80.93;97705.69;4420606;32;32503;-91
2024/01/07 01:41:33;;;;;;;;;;;;;;;8.65;80.63;97699.66;4420763;32;34935;-88
2024/01/07 01:44:01;;;;;;;;;;;;;;;8.50;81.48;97705.72;4427487;32;31964;-90
2024/01/07 01:46:28;;;;;;;;;;;;;;;8.16;82.17;97698.87;4432533;32;34960;-84
2024/01/07 01:48:55;;;;;;;;;;;;;;;8.91;79.52;97703.88;4433383;32;34407;-88
2024/01/07 01:51:23;;;;;;;;;;;;;;;8.43;81.61;97710.91;4434633;32;34137;-83
2024/01/07 01:53:50;;;;;;;;;;;;;;;8.70;80.14;97695.31;4431671;32;33490;-84
2024/01/07 01:56:19;;;;;;;;;;;;;;;8.83;79.48;97703.06;4431797;32;33858;-84
2024/01/07 01:58:50;;;;;;;;;;;;;;;9.16;78.31;97692.53;4431881;32;35237;-86
2024/01/07 02:01:17;;;;;;;;;;;;;;;9.22;78.08;97692.50;4434175;32;33704;-84
2024/01/07 02:03:46;;;;;;;;;;;;;;;9.23;77.73;97686.47;4433205;32;34089;-90
2024/01/07 02:06:13;;;;;;;;;;;;;;;9.19;77.62;97692.53;4433198;32;33759;-85
2024/01/07 02:08:40;;;;;;;;;;;;;;;8.97;78.42;97683.16;4434508;32;34064;-82
2024/01/07 02:11:17;;;;;;;;;;;;;;;9.23;77.17;97678.69;4433475;32;34537;-90
2024/01/07 02:13:44;;;;;;;;;;;;;;;9.14;77.32;97675.31;4427543;32;33272;-87
2024/01/07 02:16:12;;;;;;;;;;;;;;;9.08;77.97;97673.63;4433127;32;34109;-85
2024/01/07 02:18:43;;;;;;;;;;;;;;;8.77;78.86;97678.94;4419919;32;34996;-84
2024/01/07 02:21:11;;;;;;;;;;;;;;;9.06;77.69;97667.63;4432368;32;35080;-90
2024/01/07 02:23:38;;;;;;;;;;;;;;;9.09;77.13;97670.19;4434081;32;33470;-90
2024/01/07 02:26:05;;;;;;;;;;;;;;;9.44;75.97;97675.13;4431855;32;33861;-84
2024/01/07 02:28:33;;;;;;;;;;;;;;;9.31;75.89;97667.47;4434434;32;34780;-90
2024/01/07 02:31:00;;;;;;;;;;;;;;;8.98;77.55;97670.25;4432326;32;33535;-84
2024/01/07 02:33:29;;;;;;;;;;;;;;;9.07;77.67;97677.06;4406739;32;32720;-85
2024/01/07 02:35:56;;;;;;;;;;;;;;;9.17;77.39;97668.41;4433068;32;34157;-85
2024/01/07 02:38:23;;;;;;;;;;;;;;;9.25;77.23;97665.78;4426997;32;33910;-88
2024/01/07 02:40:51;;;;;;;;;;;;;;;9.20;76.95;97663.19;4425814;32;33526;-84
2024/01/07 02:43:18;;;;;;;;;;;;;;;9.46;75.93;97663.03;4423163;32;33607;-84
2024/01/07 02:45:45;;;;;;;;;;;;;;;9.35;76.55;97664.84;4417699;32;33270;-83
2024/01/07 02:48:13;;;;;;;;;;;;;;;9.67;75.56;97659.44;4421931;32;34335;-87
2024/01/07 02:50:41;;;;;;;;;;;;;;;9.70;75.09;97654.25;4418965;32;34238;-84
2024/01/07 02:53:10;;;;;;;;;;;;;;;9.69;74.92;97651.66;4418584;32;34294;-87
2024/01/07 02:55:38;;;;;;;;;;;;;;;9.47;75.94;97646.66;4424782;32;33618;-84
2024/01/07 02:58:05;;;;;;;;;;;;;;;9.27;76.58;97649.38;4430886;32;34237;-85
2024/01/07 03:00:33;;;;;;;;;;;;;;;9.45;75.65;97650.12;4433489;32;34681;-84
2024/01/07 03:03:00;;;;;;;;;;;;;;;9.64;75.16;97653.44;4433348;32;33256;-83
2024/01/07 03:05:32;;;;;;;;;;;;;;;9.38;76.15;97640.69;4433602;32;34951;-84
2024/01/07 03:08:00;;;;;;;;;;;;;;;9.72;75.04;97652.50;4431394;32;34447;-86
2024/01/07 03:10:27;;;;;;;;;;;;;;;9.57;75.15;97642.28;4427656;32;35206;-88
2024/01/07 03:12:54;;;;;;;;;;;;;;;9.29;75.92;97640.75;4433139;32;33303;-89
2024/01/07 03:15:22;;;;;;;;;;;;;;;9.48;75.62;97642.34;4432211;32;34848;-83
2024/01/07 03:17:49;;;;;;;;;;;;;;;9.39;75.53;97639.81;4432584;32;34095;-82
2024/01/07 03:20:17;;;;;;;;;;;;;;;8.98;77.91;97643.53;4433746;32;34779;-88
2024/01/07 03:22:44;;;;;;;;;;;;;;;9.14;77.35;97641.72;4433658;32;33068;-89
2024/01/07 03:25:11;;;;;;;;;;;;;;;9.41;76.36;97645.84;4432797;32;34996;-83
2024/01/07 03:27:38;;;;;;;;;;;;;;;9.66;75.21;97642.22;4433800;32;34431;-87
2024/01/07 03:30:06;;;;;;;;;;;;;;;9.34;75.95;97641.59;4431130;32;33883;-85
2024/01/07 03:32:34;;;;;;;;;;;;;;;9.22;76.33;97645.97;4433381;32;33491;-88
2024/01/07 03:35:02;;;;;;;;;;;;;;;9.30;76.22;97634.72;4433032;32;34186;-90
2024/01/07 03:37:29;;;;;;;;;;;;;;;8.78;78.26;97639.28;4430697;32;35442;-85
2024/01/07 03:39:57;;;;;;;;;;;;;;;8.92;78.01;97648.72;4433022;32;34582;-89
2024/01/07 03:42:24;;;;;;;;;;;;;;;8.89;78.26;97646.16;4433948;32;33911;-85
2024/01/07 03:44:51;;;;;;;;;;;;;;;9.04;77.94;97642.62;4436765;32;33742;-88
2024/01/07 03:47:19;;;;;;;;;;;;;;;9.32;76.98;97640.72;4431606;32;34502;-85
2024/01/07 03:49:46;;;;;;;;;;;;;;;9.43;76.23;97641.50;4434422;32;33956;-84
2024/01/07 03:52:13;;;;;;;;;;;;;;;9.54;75.74;97647.47;4434589;32;33398;-85
2024/01/07 03:54:41;;;;;;;;;;;;;;;9.41;76.57;97644.13;4435979;32;32871;-85
2024/01/07 03:57:08;;;;;;;;;;;;;;;9.58;75.78;97653.47;4435139;32;34509;-89
2024/01/07 03:59:35;;;;;;;;;;;;;;;9.58;75.39;97654.31;4434445;32;33932;-85
2024/01/07 04:02:03;;;;;;;;;;;;;;;9.31;76.58;97651.94;4432277;32;33588;-90
2024/01/07 04:04:30;;;;;;;;;;;;;;;9.60;75.21;97647.44;4433971;32;34059;-88
2024/01/07 04:06:58;;;;;;;;;;;;;;;9.70;74.68;97645.63;4435390;32;35235;-87
2024/01/07 04:09:25;;;;;;;;;;;;;;;9.43;75.84;97649.25;4435191;32;34807;-89
2024/01/07 04:11:52;;;;;;;;;;;;;;;9.46;75.72;97659.59;4435878;32;34049;-85
2024/01/07 04:14:20;;;;;;;;;;;;;;;9.14;76.66;97649.47;4435596;32;32284;-84
2024/01/07 04:16:47;;;;;;;;;;;;;;;9.62;75.52;97656.06;4436023;32;34217;-83
2024/01/07 04:19:14;;;;;;;;;;;;;;;9.72;75.19;97656.81;4435900;32;33230;-84
2024/01/07 04:21:45;;;;;;;;;;;;;;;9.48;75.66;97657.88;4436217;32;33117;-87
2024/01/07 04:24:13;;;;;;;;;;;;;;;9.49;75.95;97654.41;4436047;32;34894;-90
2024/01/07 04:26:40;;;;;;;;;;;;;;;9.71;74.76;97655.97;4435559;32;34171;-90
2024/01/07 04:29:08;;;;;;;;;;;;;;;9.63;75.34;97654.31;4435726;32;34240;-88
2024/01/07 04:31:35;;;;;;;;;;;;;;;9.85;74.62;97649.78;4434755;32;33158;-90
2024/01/07 04:34:03;;;;;;;;;;;;;;;9.51;75.61;97655.28;4432414;32;34260;-88
2024/01/07 04:36:30;;;;;;;;;;;;;;;9.49;75.62;97652.69;4434878;32;33671;-85
2024/01/07 04:38:57;;;;;;;;;;;;;;;9.68;75.32;97653.37;4433737;32;33326;-85
2024/01/07 04:41:25;;;;;;;;;;;;;;;9.15;77.18;97649.44;4434561;32;33442;-85
2024/01/07 04:43:52;;;;;;;;;;;;;;;9.07;77.94;97650.38;4432779;32;34940;-85
2024/01/07 04:46:19;;;;;;;;;;;;;;;9.11;77.82;97655.50;4433776;32;34213;-87
2024/01/07 04:48:47;;;;;;;;;;;;;;;8.97;78.57;97655.56;4434901;32;33314;-86
2024/01/07 04:51:14;;;;;;;;;;;;;;;8.94;78.53;97659.91;4434381;32;32641;-85
2024/01/07 04:53:41;;;;;;;;;;;;;;;9.01;78.68;97646.06;4433658;32;34040;-90
2024/01/07 04:56:09;;;;;;;;;;;;;;;8.91;79.79;97650.47;4435712;32;34163;-90
2024/01/07 04:58:36;;;;;;;;;;;;;;;8.38;81.37;97650.66;4435050;32;34328;-89
2024/01/07 05:01:03;;;;;;;;;;;;;;;8.69;80.58;97644.53;4435316;32;33053;-91
2024/01/07 05:03:32;;;;;;;;;;;;;;;8.98;79.02;97643.53;4434936;32;35182;-90
2024/01/07 05:05:59;;;;;;;;;;;;;;;8.98;79.47;97646.13;4434921;32;35943;-89
2024/01/07 05:08:26;;;;;;;;;;;;;;;9.44;77.31;97651.84;4434734;32;33917;-89
2024/01/07 05:10:54;;;;;;;;;;;;;;;9.17;78.27;97647.72;4433498;32;32877;-91
2024/01/07 05:13:21;;;;;;;;;;;;;;;9.46;77.27;97651.84;4428270;32;33974;-89
2024/01/07 05:15:53;;;;;;;;;;;;;;;9.36;77.65;97647.63;4432721;32;34648;-89
2024/01/07 05:18:24;;;;;;;;;;;;;;;9.55;76.79;97650.94;4434575;32;34675;-87
2024/01/07 05:20:52;;;;;;;;;;;;;;;9.65;76.26;97644.78;4434391;32;33431;-84
2024/01/07 05:23:19;;;;;;;;;;;;;;;9.00;78.98;97644.38;4434141;32;33785;-85
2024/01/07 05:25:47;;;;;;;;;;;;;;;9.12;78.46;97644.28;4432076;32;34111;-89
2024/01/07 05:28:14;;;;;;;;;;;;;;;9.22;78.03;97651.13;4428442;32;34139;-89
2024/01/07 05:30:43;;;;;;;;;;;;;;;9.33;77.69;97651.06;4428980;32;33142;-89
2024/01/07 05:33:11;;;;;;;;;;;;;;;9.60;76.81;97652.59;4434615;32;34193;-90
2024/01/07 05:35:38;;;;;;;;;;;;;;;9.37;77.03;97650.19;4435423;32;34625;-87
2024/01/07 05:38:05;;;;;;;;;;;;;;;9.72;75.98;97649.91;4436112;32;33420;-90
2024/01/07 05:40:33;;;;;;;;;;;;;;;9.75;75.46;97652.47;4436134;32;33120;-84
2024/01/07 05:43:00;;;;;;;;;;;;;;;9.39;77.21;97651.00;4433918;32;34656;-90
2024/01/07 05:45:27;;;;;;;;;;;;;;;9.39;77.27;97657.91;4435598;32;33518;-85
2024/01/07 05:47:55;;;;;;;;;;;;;;;9.13;78.03;97651.22;4422417;32;33506;-87
2024/01/07 05:50:22;;;;;;;;;;;;;;;9.24;77.80;97652.00;4433859;32;33365;-88
2024/01/07 05:52:49;;;;;;;;;;;;;;;9.41;76.92;97648.44;4434123;32;33946;-87
2024/01/07 05:55:17;;;;;;;;;;;;;;;9.66;75.79;97652.56;4434074;32;34320;-90
2024/01/07 05:57:44;;;;;;;;;;;;;;;9.40;76.22;97645.00;4434144;32;33950;-86
2024/01/07 06:00:12;;;;;;;;;;;;;;;9.43;76.95;97649.25;4432720;32;34151;-89
2024/01/07 06:02:40;;;;;;;;;;;;;;;9.42;76.88;97656.16;4433415;32;34453;-84
2024/01/07 06:05:07;;;;;;;;;;;;;;;9.74;75.56;97655.09;4435127;32;34282;-84
2024/01/07 06:07:34;;;;;;;;;;;;;;;9.73;75.46;97649.03;4432025;32;34997;-86
2024/01/07 06:10:02;;;;;;;;;;;;;;;8.86;78.94;97657.34;4434777;32;33319;-88
2024/01/07 06:12:29;;;;;;;;;;;;;;;9.39;77.34;97663.94;4434190;32;33787;-87
2024/01/07 06:14:57;;;;;;;;;;;;;;;9.30;77.45;97658.00;4429943;32;34789;-89
2024/01/07 06:17:24;;;;;;;;;;;;;;;9.08;78.30;97654.66;4432827;32;34926;-87
2024/01/07 06:19:51;;;;;;;;;;;;;;;9.39;77.37;97660.50;4432805;32;34096;-88
2024/01/07 06:22:19;;;;;;;;;;;;;;;9.54;76.48;97662.97;4434101;32;32720;-88
2024/01/07 06:24:46;;;;;;;;;;;;;;;9.46;76.98;97665.62;4435121;32;35011;-83
2024/01/07 06:27:13;;;;;;;;;;;;;;;9.82;75.55;97667.97;4434000;32;34666;-84
2024/01/07 06:29:40;;;;;;;;;;;;;;;9.83;74.92;97669.69;4433763;32;32841;-88
2024/01/07 06:32:09;;;;;;;;;;;;;;;9.45;75.97;97663.06;4433091;32;33357;-86
2024/01/07 06:34:38;;;;;;;;;;;;;;;9.04;78.42;97665.91;4434951;32;33950;-90
2024/01/07 06:37:07;;;;;;;;;;;;;;;9.44;76.83;97672.56;4434392;32;34009;-83
2024/01/07 06:39:35;;;;;;;;;;;;;;;9.32;77.45;97671.75;4434157;32;34148;-84
2024/01/07 06:42:02;;;;;;;;;;;;;;;9.45;77.18;97679.44;4435328;32;34149;-84
2024/01/07 06:44:29;;;;;;;;;;;;;;;8.66;80.32;97678.13;4433614;32;34531;-90
2024/01/07 06:46:57;;;;;;;;;;;;;;;9.21;78.40;97670.13;4432731;32;34521;-84
2024/01/07 06:49:24;;;;;;;;;;;;;;;9.84;75.59;97679.16;4433665;32;33353;-88
2024/01/07 06:51:51;;;;;;;;;;;;;;;9.16;78.24;97674.44;4434589;32;33949;-90
2024/01/07 06:54:19;;;;;;;;;;;;;;;9.81;75.71;97685.22;4432414;32;34676;-85
2024/01/07 06:56:46;;;;;;;;;;;;;;;9.43;77.45;97690.66;4434375;32;33830;-88
2024/01/07 06:59:13;;;;;;;;;;;;;;;9.18;77.85;97684.78;4431315;32;32853;-85
2024/01/07 07:01:41;;;;;;;;;;;;;;;9.61;76.79;97689.69;4433477;32;33863;-85
2024/01/07 07:04:08;;;;;;;;;;;;;;;9.79;76.06;97693.88;4434636;32;35166;-85
2024/01/07 07:06:35;;;;;;;;;;;;;;;9.69;76.14;97693.91;4432987;32;34232;-87
2024/01/07 07:09:03;;;;;;;;;;;;;;;9.73;76.31;97695.59;4434045;32;33426;-89
2024/01/07 07:11:30;;;;;;;;;;;;;;;9.81;75.97;97697.28;4434707;32;35161;-83
2024/01/07 07:13:58;;;;;;;;;;;;;;;8.99;79.77;97699.53;4435440;32;35156;-85
2024/01/07 07:16:25;;;;;;;;;;;;;;;9.07;79.68;97700.34;4435184;32;34156;-86
2024/01/07 07:18:52;;;;;;;;;;;;;;;9.33;78.53;97696.78;4436116;32;33788;-89
2024/01/07 07:21:20;;;;;;;;;;;;;;;9.40;78.09;97696.72;4436392;32;34694;-86
2024/01/07 07:23:47;;;;;;;;;;;;;;;9.34;78.08;97701.06;4436239;32;35383;-88
2024/01/07 07:26:14;;;;;;;;;;;;;;;9.68;76.92;97697.38;4435687;32;34169;-84
2024/01/07 07:28:41;;;;;;;;;;;;;;;9.36;77.95;97694.16;4436771;32;34129;-90
2024/01/07 07:31:10;;;;;;;;;;;;;;;9.72;76.46;97700.81;4436146;32;34937;-87
2024/01/07 07:33:40;;;;;;;;;;;;;;;9.81;76.10;97705.06;4436379;32;34172;-90
2024/01/07 07:36:08;;;;;;;;;;;;;;;9.72;76.45;97699.06;4435413;32;33760;-90
2024/01/07 07:38:35;;;;;;;;;;;;;;;9.66;76.73;97699.13;4436167;32;33335;-87
2024/01/07 07:41:02;;;;;;;;;;;;;;;9.82;76.08;97699.87;4437168;32;33609;-84
2024/01/07 07:43:30;;;;;;;;;;;;;;;9.67;76.72;97706.03;4436398;32;35045;-85
2024/01/07 07:45:57;;;;;;;;;;;;;;;9.67;76.73;97706.03;4436127;32;34189;-83
2024/01/07 07:48:26;;;;;;;;;;;;;;;9.72;76.52;97717.19;4435250;32;33880;-89
2024/01/07 07:50:53;;;;;;;;;;;;;;;9.51;77.20;97714.78;4436089;32;35103;-85
2024/01/07 07:53:21;;;;;;;;;;;;;;;9.30;77.85;97712.28;4435407;32;34764;-89
2024/01/07 07:55:49;;;;;;;;;;;;;;;9.31;77.86;97716.59;4436413;32;33970;-86
2024/01/07 07:58:17;;;;;;;;;;;;;;;9.01;79.05;97718.47;4434605;32;33114;-88
2024/01/07 08:00:44;;;;;;;;;;;;;;;9.27;78.62;97726.09;4435817;32;33847;-85
2024/01/07 08:03:12;;;;;;;;;;;;;;;9.42;77.80;97728.59;4435772;32;34506;-87
2024/01/07 08:05:41;;;;;;;;;;;;;;;9.20;78.73;97724.41;4434428;32;34077;-86
2024/01/07 08:08:09;;;;;;;;;;;;;;;9.38;77.86;97731.22;4435238;32;33288;-90
2024/01/07 08:10:36;;;;;;;;;;;;;;;9.17;78.64;97730.47;4433468;32;34944;-85
2024/01/07 08:13:03;;;;;;;;;;;;;;;9.08;79.37;97720.16;4436176;32;34460;-89
2024/01/07 08:15:31;;;;;;;;;;;;;;;9.36;78.08;97732.97;4435998;32;34504;-84
2024/01/07 08:17:58;;;;;;;;;;;;;;;9.09;79.41;97729.66;4429397;32;33362;-87
2024/01/07 08:20:25;;;;;;;;;;;;;;;8.62;81.40;97735.81;4435885;32;34254;-89
2024/01/07 08:22:53;;;;;;;;;;;;;;;8.99;80.78;97735.72;4434317;32;34087;-91
2024/01/07 08:25:22;;;;;;;;;;;;;;;9.17;79.96;97737.37;4435391;32;33873;-90
2024/01/07 08:27:50;;;;;;;;;;;;;;;8.99;79.47;97738.31;4432648;32;32777;-84
2024/01/07 08:30:19;;;;;;;;;;;;;;;8.71;80.91;97740.97;4436120;32;34645;-85
2024/01/07 08:32:46;;;;;;;;;;;;;;;8.84;80.85;97741.78;4436162;32;34274;-92
2024/01/07 08:35:14;;;;;;;;;;;;;;;8.81;80.96;97751.28;4436595;32;34863;-91
2024/01/07 08:37:45;;;;;;;;;;;;;;;9.01;80.02;97754.66;4432341;32;33018;-86
2024/01/07 08:40:13;;;;;;;;;;;;;;;8.82;80.70;97761.59;4434957;32;34999;-90
2024/01/07 08:42:41;;;;;;;;;;;;;;;8.84;80.92;97757.31;4435370;32;35217;-84
2024/01/07 08:45:08;;;;;;;;;;;;;;;8.65;82.19;97755.63;4421011;32;34997;-86
2024/01/07 08:47:36;;;;;;;;;;;;;;;8.66;81.77;97752.19;4419015;32;32956;-91
2024/01/07 08:50:10;;;;;;;;;;;;;;;8.74;81.57;97764.22;4419888;32;33994;-87
2024/01/07 08:52:37;;;;;;;;;;;;;;;8.38;83.54;97756.53;4419912;32;34536;-86
2024/01/07 08:55:06;;;;;;;;;;;;;;;8.03;85.27;97771.16;4421173;32;34997;-87
2024/01/07 08:57:33;;;;;;;;;;;;;;;8.43;84.28;97763.41;4407159;32;33347;-91
2024/01/07 09:00:01;;;;;;;;;;;;;;;8.62;82.65;97761.66;4421184;32;33931;-84
2024/01/07 09:02:28;;;;;;;;;;;;;;;8.56;82.70;97766.84;4420808;32;34125;-85
2024/01/07 09:04:57;;;;;;;;;;;;;;;8.75;82.43;97773.69;4419330;32;33930;-89
2024/01/07 09:07:25;;;;;;;;;;;;;;;8.17;84.90;97768.56;4421238;32;33353;-84
2024/01/07 09:09:55;;;;;;;;;;;;;;;8.45;84.20;97778.94;4421035;32;34895;-90
2024/01/07 09:12:22;;;;;;;;;;;;;;;8.38;84.55;97780.63;4421345;32;35221;-90
2024/01/07 09:14:49;;;;;;;;;;;;;;;8.16;85.52;97772.00;4416718;32;35055;-83
2024/01/07 09:17:17;;;;;;;;;;;;;;;8.60;83.97;97783.19;4406301;32;33433;-83
2024/01/07 09:19:44;;;;;;;;;;;;;;;9.08;80.58;97766.69;4405901;32;35066;-91
2024/01/07 09:22:12;;;;;;;;;;;;;;;8.92;81.29;97770.19;4406109;32;35135;-87
2024/01/07 09:24:39;;;;;;;;;;;;;;;8.88;80.79;97776.25;4416493;32;34199;-86
2024/01/07 09:27:06;;;;;;;;;;;;;;;7.95;83.62;97772.00;4406891;32;33722;-86
2024/01/07 09:29:34;;;;;;;;;;;;;;;8.22;81.92;97774.59;4420530;32;33879;-84
2024/01/07 09:32:01;;;;;;;;;;;;;;;8.51;81.10;97778.91;4407180;32;33793;-85
2024/01/07 09:34:28;;;;;;;;;;;;;;;8.14;81.55;97781.47;4421249;32;33672;-86
2024/01/07 09:36:58;;;;;;;;;;;;;;;7.82;81.14;97780.59;4407175;32;33020;-86
2024/01/07 09:39:26;;;;;;;;;;;;;;;7.76;80.58;97784.00;4420353;32;33118;-86
2024/01/07 09:41:53;;;;;;;;;;;;;;;7.24;82.36;97787.31;4420268;32;35174;-84
2024/01/07 09:44:20;;;;;;;;;;;;;;;7.55;81.56;97787.41;4420903;32;34361;-85
2024/01/07 09:46:51;;;;;;;;;;;;;;;7.60;80.35;97784.84;4419741;32;33075;-85
2024/01/07 09:49:18;;;;;;;;;;;;;;;7.24;81.75;97786.47;4432347;32;33848;-91
2024/01/07 09:51:47;;;;;;;;;;;;;;;7.23;81.16;97780.41;4421157;32;34452;-91
2024/01/07 09:54:16;;;;;;;;;;;;;;;6.91;82.79;97776.88;4431666;32;34150;-87
2024/01/07 09:56:46;;;;;;;;;;;;;;;7.36;81.55;97780.50;4419854;32;33353;-84
2024/01/07 09:59:14;;;;;;;;;;;;;;;7.33;80.45;97771.03;4418647;32;34885;-90
2024/01/07 10:01:41;;;;;;;;;;;;;;;7.01;81.90;97774.34;4419335;32;35387;-89
2024/01/07 10:04:08;;;;;;;;;;;;;;;7.38;80.60;97768.44;4421110;32;34330;-87
2024/01/07 10:06:36;;;;;;;;;;;;;;;7.45;78.69;97771.03;4432479;32;33587;-85
2024/01/07 10:09:06;;;;;;;;;;;;;;;6.93;81.72;97776.03;4421177;32;34339;-91
2024/01/07 10:11:33;;;;;;;;;;;;;;;6.80;82.01;97775.09;4431055;32;34007;-85
2024/01/07 10:14:00;;;;;;;;;;;;;;;6.92;80.61;97766.56;4430650;32;33927;-85
2024/01/07 10:16:28;;;;;;;;;;;;;;;6.81;81.00;97768.22;4420844;32;33151;-86
2024/01/07 10:18:55;;;;;;;;;;;;;;;7.20;79.55;97766.69;4419643;32;35607;-84
2024/01/07 10:21:22;;;;;;;;;;;;;;;7.20;79.22;97754.66;4418013;32;33964;-90
2024/01/07 10:23:50;;;;;;;;;;;;;;;6.80;80.95;97756.19;4420359;32;33785;-85
2024/01/07 10:26:17;;;;;;;;;;;;;;;6.51;81.95;97764.59;4420980;32;33810;-85
2024/01/07 10:28:56;;;;;;;;;;;;;;;6.83;81.54;97762.22;4420787;32;35006;-89
2024/01/07 10:31:24;;;;;;;;;;;;;;;6.07;85.09;97764.31;4420615;32;34179;-86
2024/01/07 10:33:52;;;;;;;;;;;;;;;6.54;81.95;97763.78;4419970;32;34270;-91
2024/01/07 10:36:19;;;;;;;;;;;;;;;6.27;82.30;97762.75;4419889;32;33466;-90
2024/01/07 10:38:46;;;;;;;;;;;;;;;6.15;83.65;97765.22;4418517;32;33821;-91
2024/01/07 10:41:15;;;;;;;;;;;;;;;6.23;83.89;97766.16;4416313;32;36147;-85
2024/01/07 10:43:42;;;;;;;;;;;;;;;6.97;80.21;97757.16;4418878;32;34237;-83
2024/01/07 10:46:10;;;;;;;;;;;;;;;6.26;82.34;97762.75;4431678;32;32992;-85
2024/01/07 10:48:38;;;;;;;;;;;;;;;6.30;81.72;97760.19;4421234;32;34186;-85
2024/01/07 10:51:05;;;;;;;;;;;;;;;6.11;84.02;97758.34;4420050;32;35239;-88
2024/01/07 10:53:34;;;;;;;;;;;;;;;6.48;82.25;97761.19;4436947;32;34856;-85
2024/01/07 10:56:04;;;;;;;;;;;;;;;6.67;81.11;97767.31;4433522;32;32979;-87
2024/01/07 10:58:33;;;;;;;;;;;;;;;6.43;82.15;97760.28;4422187;32;35090;-83
2024/01/07 11:01:03;;;;;;;;;;;;;;;6.31;82.21;97761.91;4422229;32;35108;-85
2024/01/07 11:03:33;;;;;;;;;;;;;;;5.90;82.88;97750.41;4434605;32;33917;-85
2024/01/07 11:06:07;;;;;;;;;;;;;;;5.84;84.19;97752.09;4436402;32;32980;-86
2024/01/07 11:08:43;;;;;;;;;;;;;;;5.84;84.42;97752.09;4436390;32;34811;-92
2024/01/07 11:11:15;;;;;;;;;;;;;;;6.18;82.33;97757.53;4437493;32;34128;-83
2024/01/07 11:13:42;;;;;;;;;;;;;;;5.83;83.63;97749.47;4434975;32;34537;-84
2024/01/07 11:16:11;;;;;;;;;;;;;;;6.13;82.62;97751.47;4437090;32;32999;-83
2024/01/07 11:18:39;;;;;;;;;;;;;;;5.79;83.94;97748.59;4424182;32;34952;-91
2024/01/07 11:21:07;;;;;;;;;;;;;;;6.27;82.60;97752.44;4437112;32;35015;-90
2024/01/07 11:23:39;;;;;;;;;;;;;;;6.50;80.86;97749.16;4436581;32;34253;-87
2024/01/07 11:26:09;;;;;;;;;;;;;;;6.66;79.69;97756.12;4426428;32;33242;-83
2024/01/07 11:28:49;;;;;;;;;;;;;;;6.24;81.14;97746.41;4437230;32;34934;-83
2024/01/07 11:31:17;;;;;;;;;;;;;;;6.02;81.51;97755.69;4434520;32;34341;-83
2024/01/07 11:33:45;;;;;;;;;;;;;;;6.18;82.21;97757.53;4436363;32;34038;-84
2024/01/07 11:36:14;;;;;;;;;;;;;;;6.26;80.90;97750.72;4421069;32;33171;-83
2024/01/07 11:38:41;;;;;;;;;;;;;;;6.09;82.56;97748.00;4436851;32;34519;-87
2024/01/07 11:41:09;;;;;;;;;;;;;;;6.63;79.44;97750.97;4436461;32;33974;-83
2024/01/07 11:43:36;;;;;;;;;;;;;;;6.32;81.03;97748.19;4437218;32;34650;-87
2024/01/07 11:46:03;;;;;;;;;;;;;;;5.98;81.87;97749.66;4433632;32;33078;-83
2024/01/07 11:48:31;;;;;;;;;;;;;;;5.55;83.44;97759.50;4422260;32;34986;-84
2024/01/07 11:50:59;;;;;;;;;;;;;;;5.96;82.19;97750.50;4422185;32;35477;-89
2024/01/07 11:53:26;;;;;;;;;;;;;;;6.21;81.50;97751.53;4421439;32;35063;-82
2024/01/07 11:55:53;;;;;;;;;;;;;;;5.67;83.63;97743.34;4422216;32;33448;-83
2024/01/07 11:58:20;;;;;;;;;;;;;;;5.75;82.20;97749.41;4420225;32;33768;-83
2024/01/07 12:00:48;;;;;;;;;;;;;;;5.59;83.51;97747.56;4417259;32;33915;-82
2024/01/07 12:03:15;;;;;;;;;;;;;;;5.57;82.85;97747.56;4422082;32;34871;-83
2024/01/07 12:05:42;;;;;;;;;;;;;;;5.80;81.73;97740.06;4421986;32;33067;-83
2024/01/07 12:08:10;;;;;;;;;;;;;;;5.72;81.56;97741.69;4421606;32;34154;-83
2024/01/07 12:10:38;;;;;;;;;;;;;;;6.00;79.14;97735.09;4421797;32;34153;-82
2024/01/07 12:13:06;;;;;;;;;;;;;;;5.85;80.13;97743.50;4404403;32;32899;-83
2024/01/07 12:15:33;;;;;;;;;;;;;;;4.93;83.84;97751.13;4421357;32;34067;-83
2024/01/07 12:18:01;;;;;;;;;;;;;;;5.19;83.67;97749.72;4407718;32;34094;-83
2024/01/07 12:20:29;;;;;;;;;;;;;;;5.33;83.25;97757.56;4420596;32;33678;-84
2024/01/07 12:22:57;;;;;;;;;;;;;;;5.55;82.78;97761.22;4421514;32;34827;-82
2024/01/07 12:25:25;;;;;;;;;;;;;;;5.55;81.80;97750.94;4407324;32;33028;-86
2024/01/07 12:27:52;;;;;;;;;;;;;;;5.19;82.90;97761.69;4421687;32;33628;-82
2024/01/07 12:30:20;;;;;;;;;;;;;;;4.82;83.99;97763.84;4421672;32;33850;-89
2024/01/07 12:32:47;;;;;;;;;;;;;;;4.88;84.86;97761.31;4421593;32;34153;-82
2024/01/07 12:35:15;;;;;;;;;;;;;;;4.70;84.98;97763.66;4425360;32;33000;-83
2024/01/07 12:37:43;;;;;;;;;;;;;;;4.60;85.36;97762.69;4421286;32;34999;-85
2024/01/07 12:40:11;;;;;;;;;;;;;;;4.48;86.73;97759.94;4424915;32;34452;-82
2024/01/07 12:42:45;;;;;;;;;;;;;;;4.90;84.49;97762.22;4405967;32;34069;-84
2024/01/07 12:45:13;;;;;;;;;;;;;;;4.68;85.22;97766.19;4422698;32;33383;-84
2024/01/07 12:47:42;;;;;;;;;;;;;;;4.95;84.06;97764.84;4422698;32;34266;-87
2024/01/07 12:50:10;;;;;;;;;;;;;;;5.12;83.53;97771.06;4420642;32;35252;-84
2024/01/07 12:52:38;;;;;;;;;;;;;;;5.02;82.99;97767.50;4434819;32;34457;-87
2024/01/07 12:55:06;;;;;;;;;;;;;;;4.90;83.79;97775.06;4420835;32;33236;-87
2024/01/07 12:57:33;;;;;;;;;;;;;;;4.83;83.74;97765.53;4419310;32;34263;-89
2024/01/07 13:00:05;;;;;;;;;;;;;;;4.75;83.93;97780.84;4421255;32;34271;-88